sensor_id;sensor_type;location;lat;lon;timestamp;P1;durP1;ratioP1;P2;durP2;ratioP2
13408;SDS011;6775;49.574;11.170;2022-08-19T00:01:50;14.67;;;13.27;;
13408;SDS011;6775;49.574;11.170;2022-08-19T00:04:20;17.30;;;15.57;;
13408;SDS011;6775;49.574;11.170;2022-08-19T00:06:49;15.27;;;13.77;;
13408;SDS011;6775;49.574;11.170;2022-08-19T00:09:19;13.80;;;12.53;;
13408;SDS011;6775;49.574;11.170;2022-08-19T00:11:49;13.57;;;12.17;;
13408;SDS011;6775;49.574;11.170;2022-08-19T00:14:19;14.57;;;13.20;;
13408;SDS011;6775;49.574;11.170;2022-08-19T00:16:48;13.17;;;11.97;;
13408;SDS011;6775;49.574;11.170;2022-08-19T00:19:17;13.00;;;11.70;;
13408;SDS011;6775;49.574;11.170;2022-08-19T00:21:45;13.30;;;12.10;;
13408;SDS011;6775;49.574;11.170;2022-08-19T00:24:14;13.60;;;12.20;;
13408;SDS011;6775;49.574;11.170;2022-08-19T00:26:42;12.83;;;11.63;;
13408;SDS011;6775;49.574;11.170;2022-08-19T00:29:13;13.03;;;11.80;;
13408;SDS011;6775;49.574;11.170;2022-08-19T00:31:42;13.30;;;12.00;;
13408;SDS011;6775;49.574;11.170;2022-08-19T00:34:11;14.13;;;12.73;;
13408;SDS011;6775;49.574;11.170;2022-08-19T00:36:40;13.67;;;12.37;;
13408;SDS011;6775;49.574;11.170;2022-08-19T00:39:08;14.60;;;13.20;;
13408;SDS011;6775;49.574;11.170;2022-08-19T00:41:40;12.63;;;11.43;;
13408;SDS011;6775;49.574;11.170;2022-08-19T00:44:09;15.73;;;14.17;;
13408;SDS011;6775;49.574;11.170;2022-08-19T00:46:41;13.27;;;11.97;;
13408;SDS011;6775;49.574;11.170;2022-08-19T00:49:22;13.43;;;12.13;;
13408;SDS011;6775;49.574;11.170;2022-08-19T00:51:53;14.53;;;13.13;;
13408;SDS011;6775;49.574;11.170;2022-08-19T00:54:26;13.37;;;12.10;;
13408;SDS011;6775;49.574;11.170;2022-08-19T00:56:56;13.23;;;12.03;;
13408;SDS011;6775;49.574;11.170;2022-08-19T00:59:25;12.87;;;11.67;;
13408;SDS011;6775;49.574;11.170;2022-08-19T01:02:16;15.77;;;14.27;;
13408;SDS011;6775;49.574;11.170;2022-08-19T01:04:46;13.87;;;12.47;;
13408;SDS011;6775;49.574;11.170;2022-08-19T01:07:14;13.63;;;12.33;;
13408;SDS011;6775;49.574;11.170;2022-08-19T01:09:45;12.93;;;11.73;;
13408;SDS011;6775;49.574;11.170;2022-08-19T01:12:13;12.83;;;11.53;;
13408;SDS011;6775;49.574;11.170;2022-08-19T01:14:41;14.27;;;12.87;;
13408;SDS011;6775;49.574;11.170;2022-08-19T01:17:10;14.00;;;12.70;;
13408;SDS011;6775;49.574;11.170;2022-08-19T01:19:41;14.10;;;12.70;;
13408;SDS011;6775;49.574;11.170;2022-08-19T01:22:14;14.93;;;13.40;;
13408;SDS011;6775;49.574;11.170;2022-08-19T01:24:58;12.77;;;11.57;;
13408;SDS011;6775;49.574;11.170;2022-08-19T01:27:26;12.57;;;11.47;;
13408;SDS011;6775;49.574;11.170;2022-08-19T01:30:00;12.37;;;11.20;;
13408;SDS011;6775;49.574;11.170;2022-08-19T01:32:28;13.90;;;12.50;;
13408;SDS011;6775;49.574;11.170;2022-08-19T01:34:59;14.00;;;12.57;;
13408;SDS011;6775;49.574;11.170;2022-08-19T01:37:29;14.37;;;12.97;;
13408;SDS011;6775;49.574;11.170;2022-08-19T01:40:10;13.43;;;12.13;;
13408;SDS011;6775;49.574;11.170;2022-08-19T01:42:38;13.30;;;12.00;;
13408;SDS011;6775;49.574;11.170;2022-08-19T01:48:56;14.00;;;12.60;;
13408;SDS011;6775;49.574;11.170;2022-08-19T01:51:24;14.10;;;12.77;;
13408;SDS011;6775;49.574;11.170;2022-08-19T01:53:53;13.90;;;12.50;;
13408;SDS011;6775;49.574;11.170;2022-08-19T01:56:23;13.40;;;12.00;;
13408;SDS011;6775;49.574;11.170;2022-08-19T01:58:52;13.73;;;12.33;;
13408;SDS011;6775;49.574;11.170;2022-08-19T02:01:22;12.23;;;11.07;;
13408;SDS011;6775;49.574;11.170;2022-08-19T02:03:56;14.03;;;12.63;;
13408;SDS011;6775;49.574;11.170;2022-08-19T02:06:24;12.20;;;11.10;;
13408;SDS011;6775;49.574;11.170;2022-08-19T02:08:52;12.37;;;11.27;;
13408;SDS011;6775;49.574;11.170;2022-08-19T02:11:25;13.60;;;12.20;;
13408;SDS011;6775;49.574;11.170;2022-08-19T02:13:56;14.13;;;12.83;;
13408;SDS011;6775;49.574;11.170;2022-08-19T02:16:24;15.80;;;14.00;;
13408;SDS011;6775;49.574;11.170;2022-08-19T02:18:52;13.37;;;12.07;;
13408;SDS011;6775;49.574;11.170;2022-08-19T02:21:21;12.50;;;11.27;;
13408;SDS011;6775;49.574;11.170;2022-08-19T02:23:50;12.77;;;11.57;;
13408;SDS011;6775;49.574;11.170;2022-08-19T02:26:18;13.27;;;12.07;;
13408;SDS011;6775;49.574;11.170;2022-08-19T02:28:47;12.93;;;11.73;;
13408;SDS011;6775;49.574;11.170;2022-08-19T02:31:17;12.87;;;11.57;;
13408;SDS011;6775;49.574;11.170;2022-08-19T02:33:50;13.57;;;12.27;;
13408;SDS011;6775;49.574;11.170;2022-08-19T02:36:22;14.20;;;12.90;;
13408;SDS011;6775;49.574;11.170;2022-08-19T02:38:51;13.63;;;12.33;;
13408;SDS011;6775;49.574;11.170;2022-08-19T02:41:21;12.93;;;11.70;;
13408;SDS011;6775;49.574;11.170;2022-08-19T02:43:53;12.97;;;11.77;;
13408;SDS011;6775;49.574;11.170;2022-08-19T02:46:42;13.37;;;12.17;;
13408;SDS011;6775;49.574;11.170;2022-08-19T02:49:12;13.20;;;11.90;;
13408;SDS011;6775;49.574;11.170;2022-08-19T02:51:43;13.63;;;12.33;;
13408;SDS011;6775;49.574;11.170;2022-08-19T02:54:12;12.43;;;11.23;;
13408;SDS011;6775;49.574;11.170;2022-08-19T02:56:41;12.00;;;10.90;;
13408;SDS011;6775;49.574;11.170;2022-08-19T02:59:11;12.70;;;11.60;;
13408;SDS011;6775;49.574;11.170;2022-08-19T03:01:40;12.87;;;11.67;;
13408;SDS011;6775;49.574;11.170;2022-08-19T03:04:10;13.83;;;12.43;;
13408;SDS011;6775;49.574;11.170;2022-08-19T03:06:40;14.27;;;12.87;;
13408;SDS011;6775;49.574;11.170;2022-08-19T03:09:09;14.00;;;12.60;;
13408;SDS011;6775;49.574;11.170;2022-08-19T03:11:37;12.73;;;11.53;;
13408;SDS011;6775;49.574;11.170;2022-08-19T03:14:06;14.50;;;13.00;;
13408;SDS011;6775;49.574;11.170;2022-08-19T03:16:40;14.00;;;12.63;;
13408;SDS011;6775;49.574;11.170;2022-08-19T03:19:16;14.17;;;12.70;;
13408;SDS011;6775;49.574;11.170;2022-08-19T03:21:46;15.63;;;13.90;;
13408;SDS011;6775;49.574;11.170;2022-08-19T03:24:16;14.17;;;12.67;;
13408;SDS011;6775;49.574;11.170;2022-08-19T03:26:46;15.10;;;13.57;;
13408;SDS011;6775;49.574;11.170;2022-08-19T03:29:15;13.83;;;12.53;;
13408;SDS011;6775;49.574;11.170;2022-08-19T03:31:57;13.30;;;12.00;;
13408;SDS011;6775;49.574;11.170;2022-08-19T03:34:27;14.10;;;12.67;;
13408;SDS011;6775;49.574;11.170;2022-08-19T03:36:58;14.40;;;13.10;;
13408;SDS011;6775;49.574;11.170;2022-08-19T03:39:29;15.37;;;13.83;;
13408;SDS011;6775;49.574;11.170;2022-08-19T03:41:58;15.27;;;13.50;;
13408;SDS011;6775;49.574;11.170;2022-08-19T03:44:47;14.50;;;13.00;;
13408;SDS011;6775;49.574;11.170;2022-08-19T03:47:16;14.30;;;12.80;;
13408;SDS011;6775;49.574;11.170;2022-08-19T03:49:44;14.40;;;12.90;;
13408;SDS011;6775;49.574;11.170;2022-08-19T03:52:12;13.00;;;11.80;;
13408;SDS011;6775;49.574;11.170;2022-08-19T03:54:40;14.83;;;13.33;;
13408;SDS011;6775;49.574;11.170;2022-08-19T03:57:08;13.63;;;12.23;;
13408;SDS011;6775;49.574;11.170;2022-08-19T03:59:37;13.80;;;12.37;;
13408;SDS011;6775;49.574;11.170;2022-08-19T04:02:06;15.37;;;13.70;;
13408;SDS011;6775;49.574;11.170;2022-08-19T04:04:38;14.53;;;13.13;;
13408;SDS011;6775;49.574;11.170;2022-08-19T04:07:07;14.93;;;13.17;;
13408;SDS011;6775;49.574;11.170;2022-08-19T04:09:36;13.50;;;12.20;;
13408;SDS011;6775;49.574;11.170;2022-08-19T04:12:04;14.70;;;13.20;;
13408;SDS011;6775;49.574;11.170;2022-08-19T04:14:33;15.90;;;14.33;;
13408;SDS011;6775;49.574;11.170;2022-08-19T04:17:02;13.37;;;12.07;;
13408;SDS011;6775;49.574;11.170;2022-08-19T04:19:31;14.27;;;12.87;;
13408;SDS011;6775;49.574;11.170;2022-08-19T04:22:01;14.07;;;12.77;;
13408;SDS011;6775;49.574;11.170;2022-08-19T04:24:30;13.73;;;12.33;;
13408;SDS011;6775;49.574;11.170;2022-08-19T04:26:58;13.00;;;11.80;;
13408;SDS011;6775;49.574;11.170;2022-08-19T04:29:28;13.90;;;12.50;;
13408;SDS011;6775;49.574;11.170;2022-08-19T04:31:57;14.43;;;13.03;;
13408;SDS011;6775;49.574;11.170;2022-08-19T04:34:35;13.80;;;12.33;;
13408;SDS011;6775;49.574;11.170;2022-08-19T04:37:24;15.60;;;13.83;;
13408;SDS011;6775;49.574;11.170;2022-08-19T04:40:00;16.03;;;14.43;;
13408;SDS011;6775;49.574;11.170;2022-08-19T04:42:47;13.80;;;12.40;;
13408;SDS011;6775;49.574;11.170;2022-08-19T04:45:15;14.03;;;12.73;;
13408;SDS011;6775;49.574;11.170;2022-08-19T04:47:43;13.27;;;11.90;;
13408;SDS011;6775;49.574;11.170;2022-08-19T04:50:17;12.70;;;11.40;;
13408;SDS011;6775;49.574;11.170;2022-08-19T04:52:47;12.60;;;11.40;;
13408;SDS011;6775;49.574;11.170;2022-08-19T04:55:18;15.90;;;13.97;;
13408;SDS011;6775;49.574;11.170;2022-08-19T04:57:46;13.27;;;11.97;;
13408;SDS011;6775;49.574;11.170;2022-08-19T05:00:13;14.77;;;13.27;;
13408;SDS011;6775;49.574;11.170;2022-08-19T05:02:41;13.90;;;12.57;;
13408;SDS011;6775;49.574;11.170;2022-08-19T05:05:09;15.53;;;13.43;;
13408;SDS011;6775;49.574;11.170;2022-08-19T05:07:38;15.70;;;14.00;;
13408;SDS011;6775;49.574;11.170;2022-08-19T05:10:09;15.07;;;13.57;;
13408;SDS011;6775;49.574;11.170;2022-08-19T05:12:37;14.60;;;13.03;;
13408;SDS011;6775;49.574;11.170;2022-08-19T05:15:05;14.40;;;12.83;;
13408;SDS011;6775;49.574;11.170;2022-08-19T05:17:35;13.13;;;11.73;;
13408;SDS011;6775;49.574;11.170;2022-08-19T05:20:04;12.60;;;11.30;;
13408;SDS011;6775;49.574;11.170;2022-08-19T05:22:51;15.30;;;13.77;;
13408;SDS011;6775;49.574;11.170;2022-08-19T05:25:21;13.90;;;12.57;;
13408;SDS011;6775;49.574;11.170;2022-08-19T05:27:50;14.57;;;13.07;;
13408;SDS011;6775;49.574;11.170;2022-08-19T05:30:18;16.40;;;14.67;;
13408;SDS011;6775;49.574;11.170;2022-08-19T05:33:06;14.93;;;13.43;;
13408;SDS011;6775;49.574;11.170;2022-08-19T05:35:35;15.20;;;13.60;;
13408;SDS011;6775;49.574;11.170;2022-08-19T05:38:03;13.50;;;12.13;;
13408;SDS011;6775;49.574;11.170;2022-08-19T05:40:34;16.00;;;14.13;;
13408;SDS011;6775;49.574;11.170;2022-08-19T05:43:03;13.23;;;11.93;;
13408;SDS011;6775;49.574;11.170;2022-08-19T05:45:32;14.00;;;12.47;;
13408;SDS011;6775;49.574;11.170;2022-08-19T05:48:04;13.63;;;12.23;;
13408;SDS011;6775;49.574;11.170;2022-08-19T05:50:32;13.63;;;12.27;;
13408;SDS011;6775;49.574;11.170;2022-08-19T05:53:02;12.57;;;11.33;;
13408;SDS011;6775;49.574;11.170;2022-08-19T05:55:30;12.60;;;11.40;;
13408;SDS011;6775;49.574;11.170;2022-08-19T05:57:59;13.60;;;12.27;;
13408;SDS011;6775;49.574;11.170;2022-08-19T06:00:28;13.30;;;12.00;;
13408;SDS011;6775;49.574;11.170;2022-08-19T06:02:56;13.47;;;12.07;;
13408;SDS011;6775;49.574;11.170;2022-08-19T06:05:34;12.20;;;11.00;;
13408;SDS011;6775;49.574;11.170;2022-08-19T06:08:17;13.50;;;12.10;;
13408;SDS011;6775;49.574;11.170;2022-08-19T06:10:59;12.03;;;10.93;;
13408;SDS011;6775;49.574;11.170;2022-08-19T06:13:41;12.90;;;11.60;;
13408;SDS011;6775;49.574;11.170;2022-08-19T06:16:09;11.43;;;10.33;;
13408;SDS011;6775;49.574;11.170;2022-08-19T06:18:37;11.73;;;10.53;;
13408;SDS011;6775;49.574;11.170;2022-08-19T06:21:05;11.97;;;10.77;;
13408;SDS011;6775;49.574;11.170;2022-08-19T06:23:32;11.27;;;10.27;;
13408;SDS011;6775;49.574;11.170;2022-08-19T06:26:00;11.37;;;10.37;;
13408;SDS011;6775;49.574;11.170;2022-08-19T06:28:28;11.00;;;9.90;;
13408;SDS011;6775;49.574;11.170;2022-08-19T06:30:57;12.60;;;11.40;;
13408;SDS011;6775;49.574;11.170;2022-08-19T06:33:26;11.20;;;10.10;;
13408;SDS011;6775;49.574;11.170;2022-08-19T06:35:55;10.60;;;9.60;;
13408;SDS011;6775;49.574;11.170;2022-08-19T06:38:23;10.80;;;9.87;;
13408;SDS011;6775;49.574;11.170;2022-08-19T06:40:51;10.90;;;9.90;;
13408;SDS011;6775;49.574;11.170;2022-08-19T06:43:33;10.47;;;9.43;;
13408;SDS011;6775;49.574;11.170;2022-08-19T06:46:10;10.07;;;9.17;;
13408;SDS011;6775;49.574;11.170;2022-08-19T06:48:40;9.63;;;8.73;;
13408;SDS011;6775;49.574;11.170;2022-08-19T06:51:11;9.93;;;9.03;;
13408;SDS011;6775;49.574;11.170;2022-08-19T06:53:44;9.27;;;8.40;;
13408;SDS011;6775;49.574;11.170;2022-08-19T06:56:13;8.87;;;8.07;;
13408;SDS011;6775;49.574;11.170;2022-08-19T06:58:41;9.30;;;8.50;;
13408;SDS011;6775;49.574;11.170;2022-08-19T07:01:10;10.00;;;9.10;;
13408;SDS011;6775;49.574;11.170;2022-08-19T07:03:38;9.27;;;8.27;;
13408;SDS011;6775;49.574;11.170;2022-08-19T07:06:07;9.60;;;8.70;;
13408;SDS011;6775;49.574;11.170;2022-08-19T07:08:57;9.97;;;9.07;;
13408;SDS011;6775;49.574;11.170;2022-08-19T07:11:25;9.67;;;8.77;;
13408;SDS011;6775;49.574;11.170;2022-08-19T07:13:54;10.13;;;9.13;;
13408;SDS011;6775;49.574;11.170;2022-08-19T07:16:24;9.00;;;8.10;;
13408;SDS011;6775;49.574;11.170;2022-08-19T07:18:55;9.47;;;8.57;;
13408;SDS011;6775;49.574;11.170;2022-08-19T07:21:24;9.03;;;8.17;;
13408;SDS011;6775;49.574;11.170;2022-08-19T07:23:55;8.00;;;7.30;;
13408;SDS011;6775;49.574;11.170;2022-08-19T07:26:24;8.90;;;8.10;;
13408;SDS011;6775;49.574;11.170;2022-08-19T07:28:53;8.27;;;7.47;;
13408;SDS011;6775;49.574;11.170;2022-08-19T07:31:26;8.20;;;7.40;;
13408;SDS011;6775;49.574;11.170;2022-08-19T07:33:56;7.67;;;6.87;;
13408;SDS011;6775;49.574;11.170;2022-08-19T07:36:25;8.17;;;7.43;;
13408;SDS011;6775;49.574;11.170;2022-08-19T07:38:58;7.33;;;6.63;;
13408;SDS011;6775;49.574;11.170;2022-08-19T07:41:28;7.87;;;7.17;;
13408;SDS011;6775;49.574;11.170;2022-08-19T07:43:57;8.00;;;7.23;;
13408;SDS011;6775;49.574;11.170;2022-08-19T07:46:30;8.23;;;7.50;;
13408;SDS011;6775;49.574;11.170;2022-08-19T07:48:59;7.60;;;6.90;;
13408;SDS011;6775;49.574;11.170;2022-08-19T07:51:28;8.47;;;7.67;;
13408;SDS011;6775;49.574;11.170;2022-08-19T07:57:06;8.07;;;7.37;;
13408;SDS011;6775;49.574;11.170;2022-08-19T07:59:35;8.73;;;7.90;;
13408;SDS011;6775;49.574;11.170;2022-08-19T08:02:04;7.47;;;6.77;;
13408;SDS011;6775;49.574;11.170;2022-08-19T08:04:32;8.30;;;7.50;;
13408;SDS011;6775;49.574;11.170;2022-08-19T08:07:18;10.93;;;9.77;;
13408;SDS011;6775;49.574;11.170;2022-08-19T08:10:05;9.93;;;8.93;;
13408;SDS011;6775;49.574;11.170;2022-08-19T08:12:46;10.47;;;9.43;;
13408;SDS011;6775;49.574;11.170;2022-08-19T08:15:34;9.67;;;8.27;;
13408;SDS011;6775;49.574;11.170;2022-08-19T08:18:09;8.80;;;7.90;;
13408;SDS011;6775;49.574;11.170;2022-08-19T08:20:39;9.67;;;8.30;;
13408;SDS011;6775;49.574;11.170;2022-08-19T08:23:07;9.43;;;8.40;;
13408;SDS011;6775;49.574;11.170;2022-08-19T08:25:51;10.13;;;9.03;;
13408;SDS011;6775;49.574;11.170;2022-08-19T08:28:21;9.80;;;8.80;;
13408;SDS011;6775;49.574;11.170;2022-08-19T08:30:51;10.13;;;9.07;;
13408;SDS011;6775;49.574;11.170;2022-08-19T08:33:22;10.03;;;8.77;;
13408;SDS011;6775;49.574;11.170;2022-08-19T08:35:59;9.60;;;8.70;;
13408;SDS011;6775;49.574;11.170;2022-08-19T08:38:29;10.80;;;9.70;;
13408;SDS011;6775;49.574;11.170;2022-08-19T08:41:05;9.53;;;8.30;;
13408;SDS011;6775;49.574;11.170;2022-08-19T08:43:45;9.27;;;8.37;;
13408;SDS011;6775;49.574;11.170;2022-08-19T08:46:15;9.53;;;8.63;;
13408;SDS011;6775;49.574;11.170;2022-08-19T08:49:01;9.73;;;8.83;;
13408;SDS011;6775;49.574;11.170;2022-08-19T08:51:36;9.17;;;8.27;;
13408;SDS011;6775;49.574;11.170;2022-08-19T08:54:12;8.97;;;8.07;;
13408;SDS011;6775;49.574;11.170;2022-08-19T08:56:44;9.07;;;8.17;;
13408;SDS011;6775;49.574;11.170;2022-08-19T08:59:15;8.70;;;7.90;;
13408;SDS011;6775;49.574;11.170;2022-08-19T09:01:47;9.10;;;8.20;;
13408;SDS011;6775;49.574;11.170;2022-08-19T09:04:17;8.67;;;7.87;;
13408;SDS011;6775;49.574;11.170;2022-08-19T09:06:48;8.03;;;7.23;;
13408;SDS011;6775;49.574;11.170;2022-08-19T09:09:22;8.30;;;7.50;;
13408;SDS011;6775;49.574;11.170;2022-08-19T09:12:00;9.07;;;8.03;;
13408;SDS011;6775;49.574;11.170;2022-08-19T09:14:39;9.23;;;8.33;;
13408;SDS011;6775;49.574;11.170;2022-08-19T09:17:16;11.10;;;9.90;;
13408;SDS011;6775;49.574;11.170;2022-08-19T09:19:49;9.73;;;8.83;;
13408;SDS011;6775;49.574;11.170;2022-08-19T09:22:19;10.80;;;9.47;;
13408;SDS011;6775;49.574;11.170;2022-08-19T09:24:51;11.10;;;10.00;;
13408;SDS011;6775;49.574;11.170;2022-08-19T09:27:20;10.53;;;9.47;;
13408;SDS011;6775;49.574;11.170;2022-08-19T09:30:13;10.43;;;9.43;;
13408;SDS011;6775;49.574;11.170;2022-08-19T09:32:43;10.67;;;9.67;;
13408;SDS011;6775;49.574;11.170;2022-08-19T09:35:19;11.67;;;9.93;;
13408;SDS011;6775;49.574;11.170;2022-08-19T09:37:49;11.30;;;10.10;;
13408;SDS011;6775;49.574;11.170;2022-08-19T09:40:24;11.30;;;10.10;;
13408;SDS011;6775;49.574;11.170;2022-08-19T09:42:56;11.50;;;9.43;;
13408;SDS011;6775;49.574;11.170;2022-08-19T09:45:38;13.13;;;11.13;;
13408;SDS011;6775;49.574;11.170;2022-08-19T09:48:06;11.70;;;10.50;;
13408;SDS011;6775;49.574;11.170;2022-08-19T09:50:38;12.07;;;10.87;;
13408;SDS011;6775;49.574;11.170;2022-08-19T09:53:17;13.60;;;11.93;;
13408;SDS011;6775;49.574;11.170;2022-08-19T09:55:45;11.83;;;10.63;;
13408;SDS011;6775;49.574;11.170;2022-08-19T09:58:13;11.97;;;10.77;;
13408;SDS011;6775;49.574;11.170;2022-08-19T10:00:41;12.53;;;11.23;;
13408;SDS011;6775;49.574;11.170;2022-08-19T10:03:16;15.03;;;12.40;;
13408;SDS011;6775;49.574;11.170;2022-08-19T10:05:45;12.40;;;11.10;;
13408;SDS011;6775;49.574;11.170;2022-08-19T10:08:21;12.97;;;11.13;;
13408;SDS011;6775;49.574;11.170;2022-08-19T10:10:52;13.87;;;12.47;;
13408;SDS011;6775;49.574;11.170;2022-08-19T10:13:21;11.77;;;10.57;;
13408;SDS011;6775;49.574;11.170;2022-08-19T10:15:52;11.53;;;10.33;;
13408;SDS011;6775;49.574;11.170;2022-08-19T10:18:23;12.07;;;10.87;;
13408;SDS011;6775;49.574;11.170;2022-08-19T10:21:01;11.23;;;10.13;;
13408;SDS011;6775;49.574;11.170;2022-08-19T10:23:34;11.30;;;10.13;;
13408;SDS011;6775;49.574;11.170;2022-08-19T10:26:03;12.47;;;11.17;;
13408;SDS011;6775;49.574;11.170;2022-08-19T10:28:32;12.90;;;11.10;;
13408;SDS011;6775;49.574;11.170;2022-08-19T10:31:04;12.03;;;10.83;;
13408;SDS011;6775;49.574;11.170;2022-08-19T10:33:33;12.03;;;10.80;;
13408;SDS011;6775;49.574;11.170;2022-08-19T10:36:20;12.03;;;10.93;;
13408;SDS011;6775;49.574;11.170;2022-08-19T10:38:50;12.47;;;11.20;;
13408;SDS011;6775;49.574;11.170;2022-08-19T10:41:24;13.43;;;12.10;;
13408;SDS011;6775;49.574;11.170;2022-08-19T10:43:54;15.37;;;13.50;;
13408;SDS011;6775;49.574;11.170;2022-08-19T10:46:31;13.90;;;12.47;;
13408;SDS011;6775;49.574;11.170;2022-08-19T10:49:00;12.53;;;11.23;;
13408;SDS011;6775;49.574;11.170;2022-08-19T10:51:30;15.93;;;13.33;;
13408;SDS011;6775;49.574;11.170;2022-08-19T10:54:17;14.97;;;13.40;;
13408;SDS011;6775;49.574;11.170;2022-08-19T10:56:56;13.40;;;12.00;;
13408;SDS011;6775;49.574;11.170;2022-08-19T10:59:24;12.93;;;11.63;;
13408;SDS011;6775;49.574;11.170;2022-08-19T11:02:01;13.60;;;12.20;;
13408;SDS011;6775;49.574;11.170;2022-08-19T11:04:31;12.87;;;11.57;;
13408;SDS011;6775;49.574;11.170;2022-08-19T11:07:02;13.00;;;11.70;;
13408;SDS011;6775;49.574;11.170;2022-08-19T11:09:31;13.80;;;11.93;;
13408;SDS011;6775;49.574;11.170;2022-08-19T11:12:05;12.83;;;11.47;;
13408;SDS011;6775;49.574;11.170;2022-08-19T11:14:34;14.47;;;12.97;;
13408;SDS011;6775;49.574;11.170;2022-08-19T11:17:03;13.53;;;11.90;;
13408;SDS011;6775;49.574;11.170;2022-08-19T11:19:32;13.53;;;12.10;;
13408;SDS011;6775;49.574;11.170;2022-08-19T11:22:01;12.47;;;11.27;;
13408;SDS011;6775;49.574;11.170;2022-08-19T11:24:30;13.07;;;11.87;;
13408;SDS011;6775;49.574;11.170;2022-08-19T11:27:02;12.17;;;10.93;;
13408;SDS011;6775;49.574;11.170;2022-08-19T11:29:33;10.87;;;9.80;;
13408;SDS011;6775;49.574;11.170;2022-08-19T11:32:03;12.20;;;11.00;;
13408;SDS011;6775;49.574;11.170;2022-08-19T11:34:31;10.47;;;9.47;;
13408;SDS011;6775;49.574;11.170;2022-08-19T11:37:02;10.93;;;9.90;;
13408;SDS011;6775;49.574;11.170;2022-08-19T11:39:33;10.80;;;9.70;;
13408;SDS011;6775;49.574;11.170;2022-08-19T11:42:03;11.23;;;10.03;;
13408;SDS011;6775;49.574;11.170;2022-08-19T11:44:53;10.33;;;9.33;;
13408;SDS011;6775;49.574;11.170;2022-08-19T11:47:21;10.73;;;9.63;;
13408;SDS011;6775;49.574;11.170;2022-08-19T11:49:50;10.87;;;9.77;;
13408;SDS011;6775;49.574;11.170;2022-08-19T11:52:20;9.90;;;8.93;;
13408;SDS011;6775;49.574;11.170;2022-08-19T11:54:48;10.10;;;9.20;;
13408;SDS011;6775;49.574;11.170;2022-08-19T11:57:16;9.80;;;8.90;;
13408;SDS011;6775;49.574;11.170;2022-08-19T11:59:49;10.30;;;9.30;;
13408;SDS011;6775;49.574;11.170;2022-08-19T12:02:17;9.90;;;8.90;;
13408;SDS011;6775;49.574;11.170;2022-08-19T12:04:46;9.73;;;8.83;;
13408;SDS011;6775;49.574;11.170;2022-08-19T12:07:14;9.87;;;8.87;;
13408;SDS011;6775;49.574;11.170;2022-08-19T12:09:43;9.37;;;8.50;;
13408;SDS011;6775;49.574;11.170;2022-08-19T12:12:13;9.77;;;8.87;;
13408;SDS011;6775;49.574;11.170;2022-08-19T12:14:42;9.60;;;8.70;;
13408;SDS011;6775;49.574;11.170;2022-08-19T12:17:11;9.70;;;8.80;;
13408;SDS011;6775;49.574;11.170;2022-08-19T12:19:39;9.80;;;8.80;;
13408;SDS011;6775;49.574;11.170;2022-08-19T12:22:07;10.47;;;9.27;;
13408;SDS011;6775;49.574;11.170;2022-08-19T12:24:35;9.97;;;9.03;;
13408;SDS011;6775;49.574;11.170;2022-08-19T12:27:04;10.60;;;9.47;;
13408;SDS011;6775;49.574;11.170;2022-08-19T12:29:38;9.83;;;8.90;;
13408;SDS011;6775;49.574;11.170;2022-08-19T12:32:06;14.63;;;12.50;;
13408;SDS011;6775;49.574;11.170;2022-08-19T12:34:37;11.43;;;10.20;;
13408;SDS011;6775;49.574;11.170;2022-08-19T12:37:05;10.73;;;9.70;;
13408;SDS011;6775;49.574;11.170;2022-08-19T12:39:34;10.40;;;9.40;;
13408;SDS011;6775;49.574;11.170;2022-08-19T12:42:04;10.40;;;9.40;;
13408;SDS011;6775;49.574;11.170;2022-08-19T12:44:33;11.77;;;10.53;;
13408;SDS011;6775;49.574;11.170;2022-08-19T12:47:01;9.87;;;8.97;;
13408;SDS011;6775;49.574;11.170;2022-08-19T12:49:33;10.73;;;9.73;;
13408;SDS011;6775;49.574;11.170;2022-08-19T12:52:20;11.40;;;10.40;;
13408;SDS011;6775;49.574;11.170;2022-08-19T12:54:49;11.83;;;10.73;;
13408;SDS011;6775;49.574;11.170;2022-08-19T12:57:21;10.63;;;9.60;;
13408;SDS011;6775;49.574;11.170;2022-08-19T12:59:58;10.07;;;9.17;;
13408;SDS011;6775;49.574;11.170;2022-08-19T13:02:30;11.77;;;10.57;;
13408;SDS011;6775;49.574;11.170;2022-08-19T13:05:04;11.57;;;10.17;;
13408;SDS011;6775;49.574;11.170;2022-08-19T13:07:34;11.17;;;10.03;;
13408;SDS011;6775;49.574;11.170;2022-08-19T13:10:02;12.07;;;10.80;;
13408;SDS011;6775;49.574;11.170;2022-08-19T13:12:33;10.97;;;9.97;;
13408;SDS011;6775;49.574;11.170;2022-08-19T13:15:01;12.77;;;11.47;;
13408;SDS011;6775;49.574;11.170;2022-08-19T13:17:36;12.87;;;11.47;;
13408;SDS011;6775;49.574;11.170;2022-08-19T13:20:05;11.77;;;10.57;;
13408;SDS011;6775;49.574;11.170;2022-08-19T13:22:34;11.63;;;10.53;;
13408;SDS011;6775;49.574;11.170;2022-08-19T13:25:03;12.20;;;11.00;;
13408;SDS011;6775;49.574;11.170;2022-08-19T13:27:33;10.97;;;9.90;;
13408;SDS011;6775;49.574;11.170;2022-08-19T13:30:02;12.87;;;11.63;;
13408;SDS011;6775;49.574;11.170;2022-08-19T13:32:44;12.00;;;10.80;;
13408;SDS011;6775;49.574;11.170;2022-08-19T13:35:30;10.07;;;9.17;;
13408;SDS011;6775;49.574;11.170;2022-08-19T13:37:58;11.43;;;10.33;;
13408;SDS011;6775;49.574;11.170;2022-08-19T13:40:26;10.50;;;9.50;;
13408;SDS011;6775;49.574;11.170;2022-08-19T13:42:56;11.53;;;10.43;;
13408;SDS011;6775;49.574;11.170;2022-08-19T13:45:25;10.03;;;9.03;;
13408;SDS011;6775;49.574;11.170;2022-08-19T13:47:55;8.90;;;8.10;;
13408;SDS011;6775;49.574;11.170;2022-08-19T13:50:25;9.57;;;8.67;;
13408;SDS011;6775;49.574;11.170;2022-08-19T13:52:57;9.40;;;8.50;;
13408;SDS011;6775;49.574;11.170;2022-08-19T13:55:25;9.13;;;8.23;;
13408;SDS011;6775;49.574;11.170;2022-08-19T13:57:54;7.83;;;7.13;;
13408;SDS011;6775;49.574;11.170;2022-08-19T14:00:25;7.53;;;6.83;;
13408;SDS011;6775;49.574;11.170;2022-08-19T14:02:55;6.50;;;6.00;;
13408;SDS011;6775;49.574;11.170;2022-08-19T14:05:25;6.20;;;5.60;;
13408;SDS011;6775;49.574;11.170;2022-08-19T14:07:55;5.60;;;5.10;;
13408;SDS011;6775;49.574;11.170;2022-08-19T14:10:31;5.73;;;5.23;;
13408;SDS011;6775;49.574;11.170;2022-08-19T14:13:00;6.73;;;6.13;;
13408;SDS011;6775;49.574;11.170;2022-08-19T14:15:30;5.77;;;5.23;;
13408;SDS011;6775;49.574;11.170;2022-08-19T14:17:59;6.20;;;5.60;;
13408;SDS011;6775;49.574;11.170;2022-08-19T14:20:27;5.53;;;4.93;;
13408;SDS011;6775;49.574;11.170;2022-08-19T14:22:55;6.23;;;5.63;;
13408;SDS011;6775;49.574;11.170;2022-08-19T14:25:23;5.90;;;5.40;;
13408;SDS011;6775;49.574;11.170;2022-08-19T14:27:53;6.70;;;6.00;;
13408;SDS011;6775;49.574;11.170;2022-08-19T14:30:22;5.87;;;5.37;;
13408;SDS011;6775;49.574;11.170;2022-08-19T14:32:55;7.43;;;6.73;;
13408;SDS011;6775;49.574;11.170;2022-08-19T14:35:24;6.63;;;5.93;;
13408;SDS011;6775;49.574;11.170;2022-08-19T14:37:53;6.77;;;6.10;;
13408;SDS011;6775;49.574;11.170;2022-08-19T14:40:26;6.93;;;5.60;;
13408;SDS011;6775;49.574;11.170;2022-08-19T14:42:57;5.77;;;5.27;;
13408;SDS011;6775;49.574;11.170;2022-08-19T14:45:31;6.83;;;6.13;;
13408;SDS011;6775;49.574;11.170;2022-08-19T14:48:03;6.23;;;5.63;;
13408;SDS011;6775;49.574;11.170;2022-08-19T14:50:31;6.30;;;5.70;;
13408;SDS011;6775;49.574;11.170;2022-08-19T14:53:00;5.90;;;5.40;;
13408;SDS011;6775;49.574;11.170;2022-08-19T14:55:40;5.90;;;5.40;;
13408;SDS011;6775;49.574;11.170;2022-08-19T14:58:09;5.77;;;5.27;;
13408;SDS011;6775;49.574;11.170;2022-08-19T15:00:55;6.97;;;6.17;;
13408;SDS011;6775;49.574;11.170;2022-08-19T15:03:26;5.80;;;5.30;;